createdAt,value
2023-03-23T15:59:08.824Z,15.24
2023-03-23T16:01:43.256Z,15.21
2023-03-23T16:04:18.343Z,15.17
2023-03-23T16:06:48.359Z,15.14
2023-03-23T16:09:21.303Z,15.10
2023-03-23T16:11:49.972Z,15.05
2023-03-23T16:14:19.272Z,15.01
2023-03-23T16:16:51.087Z,14.96
2023-03-23T16:19:23.925Z,14.93
2023-03-23T16:22:01.116Z,14.87
2023-03-23T16:24:30.169Z,14.81
2023-03-23T16:27:07.448Z,14.74
2023-03-23T16:29:59.783Z,14.66
2023-03-23T16:32:26.769Z,14.57
2023-03-23T16:34:55.472Z,14.49
2023-03-23T16:37:24.096Z,14.41
2023-03-23T16:39:52.922Z,14.32
2023-03-23T16:42:21.671Z,14.26
2023-03-23T16:44:51.816Z,14.20
2023-03-23T16:47:22.935Z,14.12
2023-03-23T16:49:53.430Z,14.08
2023-03-23T16:52:22.257Z,14.02
2023-03-23T16:54:52.153Z,13.97
2023-03-23T16:57:22.758Z,13.92
2023-03-23T16:59:51.813Z,13.87
2023-03-23T17:02:20.639Z,13.83
2023-03-23T17:04:50.155Z,13.79
2023-03-23T17:07:20.222Z,13.75
2023-03-23T17:09:50.194Z,13.69
2023-03-23T17:12:21.733Z,13.62
2023-03-23T17:14:50.619Z,13.56
2023-03-23T17:17:19.785Z,13.50
2023-03-23T17:19:48.800Z,13.45
2023-03-23T17:22:19.123Z,13.39
2023-03-23T17:24:48.418Z,13.32
2023-03-23T17:27:19.377Z,13.28
2023-03-23T17:29:48.264Z,13.27
2023-03-23T17:32:18.508Z,13.25
2023-03-23T17:34:47.444Z,13.26
2023-03-23T17:37:17.957Z,13.27
2023-03-23T17:39:49.341Z,13.27
2023-03-23T17:42:22.338Z,13.26
2023-03-23T17:44:51.396Z,13.26
2023-03-23T17:47:20.482Z,13.25
2023-03-23T17:49:49.506Z,13.24
2023-03-23T17:52:19.237Z,13.22
2023-03-23T17:54:48.227Z,13.20
2023-03-23T17:57:19.282Z,13.17
2023-03-23T17:59:51.651Z,13.13
2023-03-23T18:02:21.852Z,13.11
2023-03-23T18:04:56.572Z,13.08
2023-03-23T18:07:28.286Z,13.04
2023-03-23T18:10:00.934Z,13.01
2023-03-23T18:12:30.308Z,12.99
2023-03-23T18:15:01.383Z,12.96
2023-03-23T18:17:30.408Z,12.97
2023-03-23T18:19:59.268Z,12.97
2023-03-23T18:22:29.993Z,12.99
2023-03-23T18:24:58.975Z,13.02
2023-03-23T18:27:27.733Z,13.03
2023-03-23T18:29:56.893Z,13.04
2023-03-23T18:32:29.095Z,13.03
2023-03-23T18:34:58.210Z,13.03
2023-03-23T18:37:27.053Z,13.03
2023-03-23T18:39:56.644Z,13.02
2023-03-23T18:42:27.137Z,13.01
2023-03-23T18:44:58.204Z,13.00
2023-03-23T18:47:27.335Z,12.99
2023-03-23T18:49:56.323Z,12.98
2023-03-23T18:52:30.296Z,12.97
2023-03-23T18:55:02.229Z,12.97
2023-03-23T18:57:30.914Z,12.95
2023-03-23T19:00:00.537Z,12.94
2023-03-23T19:02:29.615Z,12.94
2023-03-23T19:04:58.985Z,12.94
2023-03-23T19:07:28.721Z,12.94
2023-03-23T19:09:58.719Z,12.93
2023-03-23T19:12:27.803Z,12.94
2023-03-23T19:14:57.071Z,12.94
2023-03-23T19:17:26.473Z,12.94
2023-03-23T19:19:58.105Z,12.93
2023-03-23T19:22:27.796Z,12.94
2023-03-23T19:24:56.575Z,12.94
2023-03-23T19:27:26.356Z,12.94
2023-03-23T19:29:56.373Z,12.94
2023-03-23T19:32:25.279Z,12.95
2023-03-23T19:34:55.521Z,12.96
2023-03-23T19:37:24.286Z,12.97
2023-03-23T19:39:53.337Z,12.97
2023-03-23T19:42:22.166Z,12.99
2023-03-23T19:44:53.432Z,13.03
2023-03-23T19:47:22.555Z,13.04
2023-03-23T19:49:51.667Z,13.06
2023-03-23T19:52:20.602Z,13.06
2023-03-23T19:54:49.424Z,13.06
2023-03-23T19:57:23.154Z,13.06
2023-03-23T19:59:53.455Z,13.05
2023-03-23T20:02:22.621Z,13.02
2023-03-23T20:04:52.583Z,12.98
2023-03-23T20:07:21.620Z,12.96
2023-03-23T20:09:50.911Z,12.93
2023-03-23T20:12:19.814Z,12.92
2023-03-23T20:14:50.730Z,12.88
2023-03-23T20:17:20.107Z,12.86
2023-03-23T20:19:53.047Z,12.85
2023-03-23T20:22:21.955Z,12.86
2023-03-23T20:24:51.242Z,12.87
2023-03-23T20:27:20.742Z,12.89
2023-03-23T20:29:51.754Z,12.90
2023-03-23T20:32:20.612Z,12.90
2023-03-23T20:34:49.887Z,12.89
2023-03-23T20:37:20.527Z,12.87
2023-03-23T20:39:49.466Z,12.85
2023-03-23T20:42:20.908Z,12.83
2023-03-23T20:44:50.046Z,12.81
2023-03-23T20:47:19.955Z,12.79
2023-03-23T20:49:52.782Z,12.76
2023-03-23T20:52:23.151Z,12.75
2023-03-23T20:54:52.779Z,12.74
2023-03-23T20:57:22.686Z,12.74
2023-03-23T20:59:52.774Z,12.74
2023-03-23T21:02:24.454Z,12.74
2023-03-23T21:04:53.970Z,12.74
2023-03-23T21:07:26.967Z,12.73
2023-03-23T21:09:56.044Z,12.71
2023-03-23T21:12:25.226Z,12.69
2023-03-23T21:14:54.023Z,12.66
2023-03-23T21:17:22.672Z,12.64
2023-03-23T21:19:51.794Z,12.62
2023-03-23T21:22:20.988Z,12.60
2023-03-23T21:24:50.143Z,12.58
2023-03-23T21:27:19.507Z,12.59
2023-03-23T21:29:48.824Z,12.58
2023-03-23T21:32:18.860Z,12.58
2023-03-23T21:34:47.823Z,12.57
2023-03-23T21:37:17.470Z,12.54
2023-03-23T21:39:47.441Z,12.52
2023-03-23T21:42:17.300Z,12.48
2023-03-23T21:44:46.384Z,12.45
2023-03-23T21:47:15.904Z,12.43
2023-03-23T21:49:45.468Z,12.42
2023-03-23T21:52:14.179Z,12.41
2023-03-23T21:54:43.028Z,12.40
2023-03-23T21:57:12.040Z,12.37
2023-03-23T21:59:41.908Z,12.32
2023-03-23T22:02:12.747Z,12.27
2023-03-23T22:04:43.324Z,12.22
2023-03-23T22:07:12.449Z,12.15
2023-03-23T22:09:44.270Z,12.08
2023-03-23T22:12:14.115Z,11.99
2023-03-23T22:14:43.153Z,11.91
2023-03-23T22:17:11.752Z,11.84
2023-03-23T22:19:43.173Z,11.78
2023-03-23T22:22:11.903Z,11.73
2023-03-23T22:24:43.458Z,11.69
2023-03-23T22:27:12.082Z,11.67
2023-03-23T22:29:41.416Z,11.62
2023-03-23T22:32:10.183Z,11.57
2023-03-23T22:34:40.299Z,11.53
2023-03-23T22:37:10.412Z,11.50
2023-03-23T22:39:39.395Z,11.46
2023-03-23T22:42:08.811Z,11.42
2023-03-23T22:44:40.114Z,11.37
2023-03-23T22:47:08.838Z,11.35
2023-03-23T22:49:37.753Z,11.33
2023-03-23T22:52:06.540Z,11.33
2023-03-23T22:54:35.274Z,11.36
2023-03-23T22:57:06.574Z,11.38
2023-03-23T22:59:38.749Z,11.39
2023-03-23T23:02:07.476Z,11.39
2023-03-23T23:04:36.600Z,11.37
2023-03-23T23:07:12.858Z,11.37
2023-03-23T23:09:43.143Z,11.35
2023-03-23T23:12:13.854Z,11.33
2023-03-23T23:14:44.941Z,11.33
2023-03-23T23:17:13.535Z,11.33
2023-03-23T23:19:43.536Z,11.33
2023-03-23T23:22:18.994Z,11.32
2023-03-23T23:24:48.349Z,11.32
2023-03-23T23:27:17.828Z,11.32
2023-03-23T23:29:46.628Z,11.34
2023-03-23T23:32:15.282Z,11.35
2023-03-23T23:34:44.812Z,11.34
2023-03-23T23:37:13.587Z,11.33
2023-03-23T23:39:43.265Z,11.29
2023-03-23T23:42:12.385Z,11.25
2023-03-23T23:44:42.732Z,11.19
2023-03-23T23:47:11.903Z,11.12
2023-03-23T23:49:42.152Z,11.06
2023-03-23T23:52:11.677Z,11.01
2023-03-23T23:54:42.209Z,10.96
2023-03-23T23:57:11.369Z,10.94
2023-03-23T23:59:40.664Z,10.93
